createdAt,value
2022-12-16T00:01:28.967Z,1.05
2022-12-16T00:03:58.519Z,1.03
2022-12-16T00:06:31.546Z,1.01
2022-12-16T00:09:00.939Z,1.02
2022-12-16T00:11:31.806Z,1.03
2022-12-16T00:14:01.293Z,1.02
2022-12-16T00:16:31.359Z,0.99
2022-12-16T00:19:00.993Z,0.98
2022-12-16T00:21:30.540Z,0.96
2022-12-16T00:23:59.494Z,0.95
2022-12-16T00:26:30.631Z,0.95
2022-12-16T00:29:00.066Z,0.98
2022-12-16T00:31:29.080Z,1.00
2022-12-16T00:33:59.434Z,1.02
2022-12-16T00:36:28.826Z,1.05
2022-12-16T00:38:58.083Z,1.07
2022-12-16T00:41:27.541Z,1.08
2022-12-16T00:43:56.908Z,1.07
2022-12-16T00:46:25.816Z,1.02
2022-12-16T00:48:56.275Z,0.95
2022-12-16T00:51:26.446Z,0.94
2022-12-16T00:53:55.928Z,0.97
2022-12-16T00:56:25.479Z,0.98
2022-12-16T00:58:54.851Z,0.99
2022-12-16T01:01:24.629Z,0.98
2022-12-16T01:03:58.513Z,0.97
2022-12-16T01:06:29.546Z,0.99
2022-12-16T01:08:59.528Z,1.01
2022-12-16T01:11:28.640Z,1.01
2022-12-16T01:13:58.444Z,1.03
2022-12-16T01:16:27.797Z,1.01
2022-12-16T01:18:58.404Z,1.04
2022-12-16T01:21:27.883Z,1.06
2022-12-16T01:23:57.697Z,1.04
2022-12-16T01:26:28.271Z,1.00
2022-12-16T01:28:57.819Z,0.99
2022-12-16T01:31:27.557Z,1.02
2022-12-16T01:33:57.015Z,1.05
2022-12-16T01:36:26.762Z,1.05
2022-12-16T01:38:56.502Z,1.05
2022-12-16T01:41:25.776Z,1.05
2022-12-16T01:44:21.808Z,1.06
2022-12-16T01:47:00.947Z,1.08
2022-12-16T01:49:57.178Z,1.08
2022-12-16T01:52:32.613Z,1.08
2022-12-16T01:55:09.202Z,1.09
2022-12-16T01:57:45.447Z,1.08
2022-12-16T02:00:16.242Z,1.08
2022-12-16T02:02:45.356Z,1.10
2022-12-16T02:05:22.457Z,1.10
2022-12-16T02:08:07.959Z,1.10
2022-12-16T02:10:49.533Z,1.10
2022-12-16T02:14:03.713Z,1.10
2022-12-16T02:16:59.908Z,1.10
2022-12-16T02:20:13.149Z,1.12
2022-12-16T02:23:02.892Z,1.12
2022-12-16T02:25:49.477Z,1.11
2022-12-16T02:28:39.500Z,1.09
2022-12-16T02:31:31.960Z,1.07
2022-12-16T02:34:15.642Z,1.08
2022-12-16T02:37:07.264Z,1.09
2022-12-16T02:40:00.577Z,1.11
2022-12-16T02:42:34.069Z,1.09
2022-12-16T02:45:17.807Z,1.10
2022-12-16T02:47:47.038Z,1.09
2022-12-16T02:50:36.453Z,1.05
2022-12-16T02:53:06.068Z,1.01
2022-12-16T02:56:03.789Z,1.03
2022-12-16T02:58:38.845Z,1.03
2022-12-16T03:01:33.331Z,0.95
2022-12-16T03:04:13.758Z,0.92
2022-12-16T03:06:44.935Z,0.93
2022-12-16T03:09:14.994Z,0.94
2022-12-16T03:11:44.127Z,0.94
2022-12-16T03:14:15.868Z,0.95
2022-12-16T03:16:44.861Z,0.96
2022-12-16T03:19:14.530Z,0.97
2022-12-16T03:22:12.396Z,0.97
2022-12-16T03:24:41.605Z,1.00
2022-12-16T03:27:19.010Z,0.97
2022-12-16T03:30:11.654Z,0.98
2022-12-16T03:32:49.660Z,0.97
2022-12-16T03:35:38.800Z,1.00
2022-12-16T03:38:09.955Z,1.00
2022-12-16T03:40:39.591Z,0.98
2022-12-16T03:43:08.576Z,0.95
2022-12-16T03:45:39.474Z,0.95
2022-12-16T03:48:10.495Z,0.96
2022-12-16T03:50:40.350Z,0.95
2022-12-16T03:53:10.092Z,0.98
2022-12-16T03:55:39.886Z,0.97
2022-12-16T03:58:10.558Z,0.95
2022-12-16T04:00:40.318Z,0.95
2022-12-16T04:03:09.628Z,0.91
2022-12-16T04:05:39.660Z,0.90
2022-12-16T04:08:09.447Z,0.88
2022-12-16T04:10:57.072Z,0.90
2022-12-16T04:13:45.736Z,0.91
2022-12-16T04:16:35.856Z,0.89
2022-12-16T04:19:23.252Z,0.89
2022-12-16T04:22:11.622Z,0.86
2022-12-16T04:24:40.994Z,0.85
2022-12-16T04:27:25.563Z,0.81
2022-12-16T04:30:14.046Z,0.79
2022-12-16T04:33:02.165Z,0.76
2022-12-16T04:35:50.700Z,0.75
2022-12-16T04:38:38.050Z,0.75
2022-12-16T04:41:26.170Z,0.77
2022-12-16T04:44:13.586Z,0.78
2022-12-16T04:47:02.975Z,0.81
2022-12-16T04:49:51.852Z,0.83
2022-12-16T04:52:39.920Z,0.83
2022-12-16T04:55:27.745Z,0.86
2022-12-16T04:58:17.912Z,0.87
2022-12-16T05:01:06.315Z,0.90
2022-12-16T05:03:54.590Z,0.91
2022-12-16T05:06:43.577Z,0.91
2022-12-16T05:09:31.915Z,0.95
2022-12-16T05:12:19.957Z,0.99
2022-12-16T05:15:09.535Z,1.02
2022-12-16T05:17:58.079Z,1.01
2022-12-16T05:20:46.766Z,0.99
2022-12-16T05:23:35.398Z,0.93
2022-12-16T05:26:24.697Z,0.91
2022-12-16T05:29:13.020Z,0.90
2022-12-16T05:32:00.860Z,0.89
2022-12-16T05:34:50.368Z,0.89
2022-12-16T05:37:39.115Z,0.88
2022-12-16T05:40:29.275Z,0.87
2022-12-16T05:43:17.192Z,0.87
2022-12-16T05:46:05.358Z,0.85
2022-12-16T05:48:54.811Z,0.85
2022-12-16T05:51:42.363Z,0.86
2022-12-16T05:54:32.276Z,0.86
2022-12-16T05:57:20.391Z,0.85
2022-12-16T06:00:08.405Z,0.84
2022-12-16T06:03:03.764Z,0.82
2022-12-16T06:05:51.384Z,0.85
2022-12-16T06:08:40.023Z,0.84
2022-12-16T06:11:27.634Z,0.85
2022-12-16T06:14:15.530Z,0.83
2022-12-16T06:17:03.537Z,0.83
2022-12-16T06:19:51.691Z,0.84
2022-12-16T06:22:39.529Z,0.83
2022-12-16T06:25:27.661Z,0.82
2022-12-16T06:28:15.850Z,0.80
2022-12-16T06:31:04.626Z,0.80
2022-12-16T06:33:54.935Z,0.83
2022-12-16T06:36:44.886Z,0.84
2022-12-16T06:39:33.223Z,0.86
2022-12-16T06:42:20.708Z,0.90
2022-12-16T06:45:08.976Z,0.91
2022-12-16T06:48:03.100Z,0.90
2022-12-16T06:50:55.568Z,0.91
2022-12-16T06:53:41.695Z,0.91
2022-12-16T06:56:29.485Z,0.95
2022-12-16T06:59:17.695Z,0.96
2022-12-16T07:02:05.370Z,0.92
2022-12-16T07:04:54.088Z,0.90
2022-12-16T07:07:43.288Z,0.87
2022-12-16T07:10:31.272Z,0.86
2022-12-16T07:13:19.502Z,0.87
2022-12-16T07:16:07.342Z,0.89
2022-12-16T07:18:56.116Z,0.88
2022-12-16T07:21:43.743Z,0.87
2022-12-16T07:24:31.948Z,0.87
2022-12-16T07:27:20.025Z,0.88
2022-12-16T07:30:10.297Z,0.85
2022-12-16T07:32:58.776Z,0.81
